createdAt,value
2022-09-01T00:00:13.283Z,17.20
2022-09-01T00:02:43.201Z,17.20
2022-09-01T00:05:13.607Z,17.20
2022-09-01T00:07:41.898Z,17.20
2022-09-01T00:10:11.285Z,17.10
2022-09-01T00:12:40.287Z,17.20
2022-09-01T00:15:12.543Z,17.20
2022-09-01T00:17:42.186Z,17.20
2022-09-01T00:20:11.852Z,17.20
2022-09-01T00:22:40.154Z,17.20
2022-09-01T00:25:10.121Z,17.30
2022-09-01T00:27:38.313Z,17.20
2022-09-01T00:30:10.408Z,17.20
2022-09-01T00:32:38.707Z,17.20
2022-09-01T00:35:08.738Z,17.10
2022-09-01T00:37:36.963Z,17.10
2022-09-01T00:40:07.197Z,17.10
2022-09-01T00:42:35.463Z,17.10
2022-09-01T00:45:04.202Z,17.10
2022-09-01T00:47:35.794Z,17.00
2022-09-01T00:50:07.287Z,17.00
2022-09-01T00:52:41.524Z,17.00
2022-09-01T00:55:16.113Z,17.00
2022-09-01T00:57:45.473Z,17.00
2022-09-01T01:00:18.802Z,17.10
2022-09-01T01:02:56.068Z,17.10
2022-09-01T01:05:28.748Z,17.10
2022-09-01T01:07:57.925Z,17.20
2022-09-01T01:10:26.912Z,17.10
2022-09-01T01:12:55.198Z,17.10
2022-09-01T01:15:23.509Z,17.10
2022-09-01T01:17:53.243Z,17.20
2022-09-01T01:20:44.486Z,17.20
2022-09-01T01:23:22.797Z,17.10
2022-09-01T01:25:55.933Z,17.10
2022-09-01T01:28:29.320Z,17.10
2022-09-01T01:31:01.887Z,17.10
2022-09-01T01:33:42.624Z,17.10
2022-09-01T01:36:14.461Z,17.10
2022-09-01T01:38:46.868Z,17.00
2022-09-01T01:41:19.890Z,17.10
2022-09-01T01:43:51.105Z,17.00
2022-09-01T01:46:21.385Z,17.00
2022-09-01T01:48:52.356Z,17.00
2022-09-01T01:51:25.079Z,17.00
2022-09-01T01:53:53.654Z,16.90
2022-09-01T01:56:25.729Z,16.90
2022-09-01T01:58:55.412Z,16.90
2022-09-01T02:01:25.551Z,16.90
2022-09-01T02:03:54.849Z,16.90
2022-09-01T02:06:25.904Z,16.90
2022-09-01T02:09:02.982Z,16.90
2022-09-01T02:11:33.733Z,16.90
2022-09-01T02:14:02.911Z,16.90
2022-09-01T02:16:33.709Z,16.90
2022-09-01T02:19:06.955Z,16.80
2022-09-01T02:21:35.783Z,16.80
2022-09-01T02:24:08.604Z,16.80
2022-09-01T02:26:42.876Z,16.80
2022-09-01T02:29:21.086Z,16.80
2022-09-01T02:31:52.038Z,16.80
2022-09-01T02:34:24.186Z,16.80
2022-09-01T02:36:56.540Z,16.90
2022-09-01T02:39:29.665Z,16.70
2022-09-01T02:42:01.291Z,16.70
2022-09-01T02:44:31.179Z,16.60
2022-09-01T02:47:01.846Z,16.60
2022-09-01T02:49:31.389Z,16.60
2022-09-01T02:52:01.702Z,16.50
2022-09-01T02:54:33.354Z,16.50
2022-09-01T02:57:03.960Z,16.50
2022-09-01T02:59:34.698Z,16.50
2022-09-01T03:02:03.081Z,16.40
2022-09-01T03:04:35.042Z,16.40
2022-09-01T03:07:04.211Z,16.40
2022-09-01T03:09:35.187Z,16.40
2022-09-01T03:12:07.221Z,16.40
2022-09-01T03:14:36.337Z,16.30
2022-09-01T03:17:04.764Z,16.30
2022-09-01T03:19:40.171Z,16.30
2022-09-01T03:22:08.631Z,16.20
2022-09-01T03:24:39.116Z,16.20
2022-09-01T03:27:11.648Z,16.20
2022-09-01T03:29:40.005Z,16.10
2022-09-01T03:32:09.194Z,16.10
2022-09-01T03:34:37.465Z,16.10
2022-09-01T03:37:07.973Z,16.10
2022-09-01T03:39:36.734Z,16.00
2022-09-01T03:42:08.382Z,16.00
2022-09-01T03:44:40.417Z,16.00
2022-09-01T03:47:11.625Z,15.90
2022-09-01T03:49:40.495Z,15.90
2022-09-01T03:52:08.901Z,15.90
2022-09-01T03:54:38.052Z,15.90
2022-09-01T03:57:09.855Z,15.90
2022-09-01T03:59:43.299Z,15.90
2022-09-01T04:02:13.126Z,15.90
2022-09-01T04:04:41.735Z,16.00
2022-09-01T04:07:09.960Z,16.00
2022-09-01T04:09:44.241Z,16.00
2022-09-01T04:12:15.757Z,16.00
2022-09-01T04:14:48.494Z,16.20
2022-09-01T04:17:34.343Z,16.00
2022-09-01T04:20:08.832Z,16.10
2022-09-01T04:22:38.251Z,16.00
2022-09-01T04:25:09.001Z,15.90
2022-09-01T04:27:40.625Z,15.90
2022-09-01T04:30:12.242Z,15.90
2022-09-01T04:32:46.944Z,15.80
2022-09-01T04:35:17.064Z,15.80
2022-09-01T04:37:48.500Z,15.70
2022-09-01T04:40:17.663Z,15.70
2022-09-01T04:42:46.846Z,15.60
2022-09-01T04:45:20.507Z,15.60
2022-09-01T04:47:49.215Z,15.60
2022-09-01T04:50:19.502Z,15.60
2022-09-01T04:53:07.573Z,15.50
2022-09-01T04:55:43.635Z,15.50
2022-09-01T04:58:17.387Z,15.40
2022-09-01T05:00:52.143Z,15.40
2022-09-01T05:03:24.271Z,15.40
2022-09-01T05:06:08.825Z,15.40
2022-09-01T05:08:38.316Z,15.40
2022-09-01T05:11:11.445Z,15.30
2022-09-01T05:13:43.409Z,15.30
2022-09-01T05:16:15.962Z,15.30
2022-09-01T05:18:49.605Z,15.30
2022-09-01T05:21:22.346Z,15.30
2022-09-01T05:23:51.837Z,15.30
2022-09-01T05:26:24.974Z,15.30
2022-09-01T05:28:57.505Z,15.40
2022-09-01T05:31:37.721Z,15.40
2022-09-01T05:34:07.999Z,15.40
2022-09-01T05:36:37.681Z,15.50
2022-09-01T05:39:09.735Z,15.50
2022-09-01T05:41:40.040Z,15.60
2022-09-01T05:44:11.255Z,15.70
2022-09-01T05:46:42.631Z,15.80
2022-09-01T05:49:14.056Z,15.90
2022-09-01T05:51:50.830Z,16.00
2022-09-01T05:54:27.314Z,16.10
2022-09-01T05:57:12.672Z,16.30
2022-09-01T05:59:53.792Z,16.40
2022-09-01T06:02:27.213Z,16.60
2022-09-01T06:04:57.265Z,16.80
2022-09-01T06:07:30.649Z,17.00
2022-09-01T06:10:02.328Z,17.20
2022-09-01T06:12:31.004Z,17.50
2022-09-01T06:15:00.126Z,17.70
2022-09-01T06:17:30.914Z,17.90
2022-09-01T06:20:10.827Z,18.10
2022-09-01T06:22:42.080Z,18.20
2022-09-01T06:25:11.412Z,18.30
2022-09-01T06:27:44.956Z,18.40
2022-09-01T06:30:20.187Z,18.40
2022-09-01T06:32:57.674Z,18.40
2022-09-01T06:35:29.857Z,18.50
2022-09-01T06:38:00.018Z,18.40
2022-09-01T06:40:42.329Z,18.30
2022-09-01T06:43:14.055Z,18.30
2022-09-01T06:45:49.717Z,18.20
2022-09-01T06:48:20.089Z,18.10
2022-09-01T06:53:38.863Z,18.10
2022-09-01T06:56:18.737Z,18.10
2022-09-01T06:58:48.317Z,18.10
2022-09-01T07:01:19.757Z,18.00
2022-09-01T07:03:53.773Z,18.10
2022-09-01T07:09:18.975Z,18.10
2022-09-01T07:12:25.390Z,18.10
2022-09-01T07:17:43.939Z,18.10
2022-09-01T07:20:23.459Z,18.10
2022-09-01T07:23:09.422Z,18.20
2022-09-01T07:26:02.391Z,18.20
2022-09-01T07:28:42.554Z,18.30
2022-09-01T07:38:04.343Z,18.50
2022-09-01T07:43:28.406Z,18.60
2022-09-01T07:52:02.152Z,18.90
2022-09-01T07:54:33.970Z,18.90
2022-09-01T07:57:03.012Z,19.00
2022-09-01T07:59:35.399Z,19.10
2022-09-01T08:02:11.431Z,19.20
2022-09-01T08:04:40.088Z,19.30
2022-09-01T08:07:15.455Z,19.30
2022-09-01T08:09:46.122Z,19.40
2022-09-01T08:12:16.461Z,19.50
2022-09-01T08:15:12.706Z,19.70
2022-09-01T08:17:57.295Z,20.10
2022-09-01T08:20:28.272Z,20.80
2022-09-01T08:23:00.710Z,21.50
2022-09-01T08:25:38.478Z,22.20
2022-09-01T08:28:07.795Z,22.90
2022-09-01T08:30:36.955Z,23.50
2022-09-01T08:33:13.179Z,23.90
2022-09-01T08:35:48.530Z,24.30
2022-09-01T08:38:17.825Z,24.60
2022-09-01T08:40:57.114Z,24.90
2022-09-01T08:43:48.354Z,25.20
2022-09-01T08:46:25.283Z,25.50
2022-09-01T08:49:24.392Z,25.70
2022-09-01T08:52:20.973Z,25.80
2022-09-01T08:54:54.893Z,26.10
2022-09-01T08:57:32.165Z,26.20
2022-09-01T09:00:30.476Z,26.40
2022-09-01T09:03:27.210Z,26.60
2022-09-01T09:06:12.640Z,26.70
2022-09-01T09:08:59.049Z,26.90
2022-09-01T09:11:55.493Z,27.00
2022-09-01T09:14:44.088Z,27.20
2022-09-01T09:17:14.141Z,27.40
2022-09-01T09:19:45.510Z,27.50
2022-09-01T09:22:16.957Z,27.50
2022-09-01T09:24:51.237Z,27.70
2022-09-01T09:27:23.733Z,27.80
2022-09-01T09:29:56.843Z,27.90
2022-09-01T09:33:06.511Z,27.90
2022-09-01T09:35:36.511Z,28.00
2022-09-01T09:38:24.328Z,28.20
2022-09-01T09:41:17.964Z,28.30
2022-09-01T09:43:58.761Z,28.40
2022-09-01T09:46:37.656Z,28.40
2022-09-01T09:49:14.708Z,28.50
2022-09-01T09:51:48.505Z,28.70
2022-09-01T09:54:24.876Z,28.80
2022-09-01T09:57:13.330Z,28.90
2022-09-01T09:59:58.770Z,28.90
2022-09-01T10:02:35.926Z,29.10
2022-09-01T10:05:27.992Z,29.20
2022-09-01T10:07:58.538Z,29.30
2022-09-01T10:10:37.727Z,29.40
2022-09-01T10:13:10.039Z,29.50
2022-09-01T10:15:39.875Z,29.60
2022-09-01T10:18:20.551Z,29.80
2022-09-01T10:20:57.510Z,29.80
2022-09-01T10:23:31.054Z,29.90
2022-09-01T10:26:09.541Z,30.00
2022-09-01T10:28:50.652Z,30.00
2022-09-01T10:31:20.100Z,30.00
2022-09-01T10:33:51.024Z,30.10
2022-09-01T10:36:24.419Z,30.30
2022-09-01T10:38:58.714Z,30.30
2022-09-01T10:41:59.641Z,30.30
2022-09-01T10:44:34.158Z,30.40
2022-09-01T10:47:13.588Z,30.50
2022-09-01T10:50:07.622Z,30.50
2022-09-01T10:53:08.296Z,30.70
2022-09-01T10:56:02.671Z,30.70
2022-09-01T11:02:35.657Z,30.90
2022-09-01T11:05:17.405Z,31.00
2022-09-01T11:08:09.122Z,31.00
2022-09-01T11:10:47.715Z,31.10
2022-09-01T11:13:49.573Z,31.20
2022-09-01T11:16:53.198Z,31.30
2022-09-01T11:19:41.257Z,31.40
2022-09-01T11:22:37.895Z,31.40
2022-09-01T11:25:41.436Z,31.50
2022-09-01T11:28:42.801Z,31.50
2022-09-01T11:31:32.007Z,31.60
2022-09-01T11:34:28.288Z,31.60
2022-09-01T11:37:01.363Z,31.80
2022-09-01T11:39:47.509Z,31.70
2022-09-01T11:42:22.485Z,31.80
2022-09-01T11:45:00.828Z,31.80
2022-09-01T11:47:33.293Z,31.90
2022-09-01T11:50:04.360Z,31.90
2022-09-01T11:52:36.867Z,32.00
2022-09-01T11:55:10.207Z,32.00
2022-09-01T11:57:41.115Z,32.00
2022-09-01T12:00:15.894Z,32.10
2022-09-01T12:02:49.501Z,32.10
2022-09-01T12:05:32.623Z,32.20
2022-09-01T12:08:03.330Z,32.20
2022-09-01T12:10:37.965Z,32.20
2022-09-01T12:13:10.071Z,32.30
2022-09-01T12:16:00.472Z,32.40
2022-09-01T12:18:32.356Z,32.50
2022-09-01T12:21:03.333Z,32.60
2022-09-01T12:23:35.186Z,32.70
2022-09-01T12:26:09.243Z,32.70
2022-09-01T12:28:39.207Z,32.60
2022-09-01T12:31:14.935Z,32.60
2022-09-01T12:33:45.301Z,32.60
2022-09-01T12:36:23.387Z,32.60
2022-09-01T12:38:52.639Z,32.70
2022-09-01T12:41:36.289Z,32.70
2022-09-01T12:44:31.975Z,32.70
2022-09-01T12:47:03.515Z,32.70
2022-09-01T12:49:50.143Z,32.70
2022-09-01T12:52:26.520Z,32.60
2022-09-01T12:55:47.334Z,32.70
2022-09-01T12:58:06.577Z,32.80
2022-09-01T13:00:38.077Z,32.90
2022-09-01T13:03:14.151Z,33.00
2022-09-01T13:05:44.268Z,33.00
2022-09-01T13:08:15.388Z,32.90
2022-09-01T13:10:46.233Z,32.80
2022-09-01T13:13:19.010Z,32.80
2022-09-01T13:15:50.454Z,32.90
2022-09-01T13:18:20.395Z,33.00
2022-09-01T13:20:49.167Z,33.10
2022-09-01T13:23:18.304Z,33.20
2022-09-01T13:25:46.924Z,33.10
2022-09-01T13:28:19.162Z,33.20
2022-09-01T13:31:28.716Z,33.10
2022-09-01T13:39:20.379Z,33.30
2022-09-01T13:41:49.364Z,33.30
2022-09-01T13:44:19.595Z,33.30
2022-09-01T13:50:05.604Z,33.30
2022-09-01T13:52:25.400Z,33.20
2022-09-01T13:54:53.818Z,33.40
2022-09-01T13:57:22.251Z,33.40
2022-09-01T13:59:52.053Z,33.40
2022-09-01T14:02:20.593Z,33.50
2022-09-01T14:04:49.055Z,33.50
2022-09-01T14:07:18.910Z,33.50
2022-09-01T14:09:47.616Z,33.60
2022-09-01T14:12:16.095Z,33.70
2022-09-01T14:17:34.164Z,33.70
2022-09-01T14:20:02.863Z,33.70
2022-09-01T14:22:34.173Z,33.70
2022-09-01T14:25:07.029Z,33.60
2022-09-01T14:27:35.952Z,33.60
2022-09-01T14:30:05.938Z,33.70
2022-09-01T14:32:36.468Z,33.60
2022-09-01T14:35:08.141Z,33.70
2022-09-01T14:37:38.304Z,33.60
2022-09-01T14:40:11.364Z,33.70
2022-09-01T14:42:49.648Z,33.60
2022-09-01T14:45:19.632Z,33.50
2022-09-01T14:47:52.989Z,33.50
2022-09-01T14:50:23.669Z,33.40
2022-09-01T14:52:54.652Z,33.40
2022-09-01T14:55:25.471Z,33.40
2022-09-01T14:57:55.042Z,33.40
2022-09-01T15:00:26.111Z,33.40
2022-09-01T15:02:57.013Z,33.40
2022-09-01T15:05:26.452Z,33.40
2022-09-01T15:07:55.341Z,33.20
2022-09-01T15:10:27.489Z,33.20
2022-09-01T15:12:58.295Z,33.20
2022-09-01T15:15:28.928Z,33.20
2022-09-01T15:18:00.338Z,33.20
2022-09-01T15:20:48.771Z,33.20
2022-09-01T15:23:19.983Z,33.20
2022-09-01T15:25:52.754Z,33.20
2022-09-01T15:28:22.169Z,33.20
2022-09-01T15:30:54.420Z,33.20
2022-09-01T15:33:24.199Z,33.20
2022-09-01T15:35:52.664Z,33.20
2022-09-01T15:38:25.112Z,33.20
2022-09-01T15:40:58.374Z,33.10
2022-09-01T15:43:29.021Z,33.00
2022-09-01T15:45:59.127Z,32.90
2022-09-01T15:48:29.812Z,32.90
2022-09-01T15:51:29.404Z,32.90
2022-09-01T15:54:01.866Z,32.90
2022-09-01T15:56:31.922Z,32.90
2022-09-01T15:59:02.201Z,32.80
2022-09-01T16:01:33.617Z,32.80
2022-09-01T16:04:05.125Z,32.60
2022-09-01T16:06:34.765Z,32.50
2022-09-01T16:09:03.043Z,32.50
2022-09-01T16:11:31.564Z,32.40
2022-09-01T16:14:01.928Z,32.30
2022-09-01T16:16:45.962Z,32.20
2022-09-01T16:19:33.507Z,32.10
2022-09-01T16:22:12.327Z,32.00
2022-09-01T16:24:45.381Z,32.00
2022-09-01T16:27:16.927Z,31.90
2022-09-01T16:29:49.627Z,31.90
2022-09-01T16:32:21.491Z,31.80
2022-09-01T16:34:52.582Z,31.70
2022-09-01T16:37:44.916Z,31.60
2022-09-01T16:40:30.120Z,31.40
2022-09-01T16:43:07.626Z,31.20
2022-09-01T16:45:50.687Z,31.10
2022-09-01T16:48:27.113Z,30.90
2022-09-01T16:51:06.587Z,30.80
2022-09-01T16:53:55.929Z,30.70
2022-09-01T16:56:32.059Z,30.60
2022-09-01T17:01:56.048Z,30.40
2022-09-01T17:04:37.220Z,30.30
2022-09-01T17:07:15.533Z,30.20
2022-09-01T17:09:47.031Z,30.10
2022-09-01T17:12:27.973Z,29.90
2022-09-01T17:14:59.686Z,29.60
2022-09-01T17:17:42.974Z,29.40
2022-09-01T17:20:13.009Z,29.30
2022-09-01T17:22:50.539Z,29.10
2022-09-01T17:25:29.749Z,28.90
2022-09-01T17:28:02.577Z,28.70
2022-09-01T17:30:36.167Z,28.50
2022-09-01T17:33:23.184Z,28.20
2022-09-01T17:36:10.435Z,28.00
2022-09-01T17:38:54.242Z,27.70
2022-09-01T17:41:34.701Z,27.40
2022-09-01T17:44:15.838Z,27.20
2022-09-01T17:46:50.509Z,27.00
2022-09-01T17:49:27.197Z,26.80
2022-09-01T17:52:05.994Z,26.60
2022-09-01T17:54:45.614Z,26.40
2022-09-01T17:57:24.117Z,26.30
2022-09-01T18:00:01.365Z,26.00
2022-09-01T18:02:58.514Z,25.80
2022-09-01T18:05:28.756Z,25.60
2022-09-01T18:08:13.590Z,25.50
2022-09-01T18:10:50.334Z,25.30
2022-09-01T18:13:52.900Z,25.00
2022-09-01T18:16:19.273Z,24.80
2022-09-01T18:18:51.090Z,24.70
2022-09-01T18:21:24.576Z,24.50
2022-09-01T18:23:59.137Z,24.30
2022-09-01T18:26:32.503Z,24.10
2022-09-01T18:29:03.272Z,24.00
2022-09-01T18:32:05.080Z,24.00
2022-09-01T18:35:03.128Z,23.70
2022-09-01T18:37:43.189Z,23.50
2022-09-01T18:40:22.595Z,23.40
2022-09-01T18:43:02.018Z,23.30
2022-09-01T18:45:39.689Z,23.20
2022-09-01T18:48:19.780Z,23.10
2022-09-01T18:50:54.495Z,23.00
2022-09-01T18:53:42.033Z,22.80
2022-09-01T18:56:23.183Z,22.70
2022-09-01T18:59:12.429Z,22.60
2022-09-01T19:01:55.440Z,22.40
2022-09-01T19:04:31.320Z,22.30
2022-09-01T19:07:11.484Z,22.20
2022-09-01T19:09:50.849Z,22.10
2022-09-01T19:12:33.167Z,22.10
2022-09-01T19:15:12.096Z,22.00
2022-09-01T19:18:05.261Z,21.90
2022-09-01T19:20:44.555Z,21.80
2022-09-01T19:23:20.342Z,21.70
2022-09-01T19:25:50.441Z,21.60
2022-09-01T19:28:27.037Z,21.60
2022-09-01T19:31:10.228Z,21.50
2022-09-01T19:33:43.772Z,21.50
2022-09-01T19:36:23.130Z,21.40
2022-09-01T19:38:51.777Z,21.30
2022-09-01T19:41:26.637Z,21.30
2022-09-01T19:44:08.161Z,21.20
2022-09-01T19:46:44.284Z,21.10
2022-09-01T19:49:27.169Z,21.00
2022-09-01T19:52:04.773Z,20.90
2022-09-01T19:54:45.833Z,20.90
2022-09-01T19:57:35.958Z,20.80
2022-09-01T20:00:13.686Z,20.70
2022-09-01T20:02:52.733Z,20.60
2022-09-01T20:05:31.730Z,20.50
2022-09-01T20:08:07.709Z,20.40
2022-09-01T20:10:57.527Z,20.40
2022-09-01T20:14:04.634Z,20.30
2022-09-01T20:16:38.580Z,20.30
2022-09-01T20:19:16.302Z,20.20
2022-09-01T20:21:48.548Z,20.10
2022-09-01T20:24:30.372Z,20.10
2022-09-01T20:27:04.146Z,20.00
2022-09-01T20:29:51.455Z,20.00
2022-09-01T20:32:28.071Z,19.90
2022-09-01T20:35:04.728Z,19.90
2022-09-01T20:37:38.146Z,19.80
2022-09-01T20:40:11.205Z,19.80
2022-09-01T20:42:51.129Z,19.70
2022-09-01T20:45:22.876Z,19.70
2022-09-01T20:47:58.068Z,19.60
2022-09-01T20:50:37.936Z,19.60
2022-09-01T20:53:26.547Z,19.50
2022-09-01T20:55:59.671Z,19.40
2022-09-01T20:58:37.813Z,19.40
2022-09-01T21:01:19.634Z,19.30
2022-09-01T21:04:03.003Z,19.30
2022-09-01T21:06:51.626Z,19.30
2022-09-01T21:09:31.776Z,19.20
2022-09-01T21:12:09.149Z,19.10
2022-09-01T21:14:56.136Z,19.10
2022-09-01T21:17:33.351Z,19.10
2022-09-01T21:20:12.477Z,19.00
2022-09-01T21:22:42.160Z,19.00
2022-09-01T21:25:10.920Z,18.90
2022-09-01T21:27:51.328Z,18.90
2022-09-01T21:30:21.014Z,18.80
2022-09-01T21:32:49.670Z,18.80
2022-09-01T21:35:21.196Z,18.70
2022-09-01T21:37:51.955Z,18.70
2022-09-01T21:40:25.311Z,18.70
2022-09-01T21:43:00.131Z,18.60
2022-09-01T21:45:29.207Z,18.50
2022-09-01T21:47:57.554Z,18.50
2022-09-01T21:50:27.665Z,18.50
2022-09-01T21:52:57.377Z,18.40
2022-09-01T21:55:26.014Z,18.40
2022-09-01T21:57:55.535Z,18.40
2022-09-01T22:00:28.194Z,18.30
2022-09-01T22:02:59.423Z,18.30
2022-09-01T22:05:28.744Z,18.20
2022-09-01T22:07:58.977Z,18.10
2022-09-01T22:10:30.232Z,18.20
2022-09-01T22:13:03.484Z,18.10
2022-09-01T22:15:32.086Z,18.00
2022-09-01T22:18:00.494Z,18.00
2022-09-01T22:20:31.819Z,18.00
2022-09-01T22:23:02.841Z,17.90
2022-09-01T22:25:33.789Z,17.90
2022-09-01T22:28:11.333Z,17.80
2022-09-01T22:30:46.490Z,17.90
2022-09-01T22:33:15.823Z,17.80
2022-09-01T22:39:09.425Z,17.70
2022-09-01T22:41:41.582Z,17.70
2022-09-01T22:44:11.101Z,17.60
2022-09-01T22:46:40.659Z,17.60
2022-09-01T22:49:09.653Z,17.60
2022-09-01T22:51:40.319Z,17.50
2022-09-01T22:54:11.521Z,17.50
2022-09-01T22:56:41.629Z,17.50
2022-09-01T22:59:14.644Z,17.50
2022-09-01T23:01:47.627Z,17.40
2022-09-01T23:04:18.077Z,17.40
2022-09-01T23:06:51.619Z,17.40
2022-09-01T23:09:22.226Z,17.30
2022-09-01T23:11:51.188Z,17.30
2022-09-01T23:14:19.546Z,17.30
2022-09-01T23:16:51.257Z,17.30
2022-09-01T23:19:21.131Z,17.20
2022-09-01T23:21:51.090Z,17.20
2022-09-01T23:24:21.429Z,17.20
2022-09-01T23:26:50.300Z,17.20
2022-09-01T23:29:19.601Z,17.10
2022-09-01T23:31:48.085Z,17.20
2022-09-01T23:34:17.042Z,17.10
2022-09-01T23:36:45.530Z,17.10
2022-09-01T23:39:13.979Z,17.00
2022-09-01T23:41:43.768Z,17.00
2022-09-01T23:44:14.363Z,17.00
2022-09-01T23:46:45.376Z,16.90
2022-09-01T23:49:16.669Z,16.90
2022-09-01T23:51:46.737Z,16.90
2022-09-01T23:54:15.384Z,16.90
2022-09-01T23:56:45.093Z,16.90
2022-09-01T23:59:13.896Z,16.80
